Sierra Vista, AZ (85650)

6:57 AM MST on August 30, 2014 (GMT -0700)
Canyon De Flores -Cochise County (N0NBH) | Change Station
CLOSE
Current Station
Personal Weather Station
Location: Sierra Vista, AZ
Elevation: 4645 ft
Nearby Weather Stations

Elev 4645 ft 31.50 °N, 110.26 °W | Updated 12 seconds ago

Clear
Clear
76.2 °F
Feels Like 78 °F
N
0.0
Wind Variable Wind from WNW
Gusts 0.0 mph

Today
High -- | Low -- °F
--% Chance of Precip.
Yesterday
High -- | Low -- °F
Precip. -- in
5:55 AM 6:47 PM
Waxing Crescent, 22% visible
Pressure 29.90 in
Visibility 10.0 miles
Clouds Clear
Heat Index 78 °F
Dew Point 50 °F
Humidity 40%
Rainfall 0.00 in
Snow Depth Not available.
UV 0 out of 12
Pollen 6.60 out of 12
Air Quality Not available.
Flu Activity Not available.
METAR KFHU 301256Z AUTO 23004KT 10SM CLR 20/07 A3010 RMK AO2 SLP125 T02000067 $

More Conditions Fewer Conditions

Pressure 29.90 in
Visibility 10.0 miles
Clouds Clear
Heat Index 78 °F
Dew Point 50 °F
Humidity 40%
Rainfall 0.00 in
Snow Depth Not available.
UV 0 out of 12
Pollen 6.60 out of 12
Air Quality Not available.
Flu Activity Not available.
METAR KFHU 301256Z AUTO 23004KT 10SM CLR 20/07 A3010 RMK AO2 SLP125 T02000067 $

More Conditions Fewer Conditions

10-Day Weather Forecast

Almanac

Astronomy

Aug. 30, 2014 Rise Set
Actual Time 5:55 AM MST 6:47 PM MST
Civil Twilight 5:30 AM MST 7:11 PM MST
Nautical Twilight 5:01 AM MST 7:41 PM MST
Astronomical Twilight 4:31 AM MST 8:11 PM MST
Moon 10:26 AM MST 9:44 PM MST
Length of Visible Light 13h 41m
Length of Day
12h 51m
Tomorrow will be 1m 49s shorter.
Waxing Crescent, 22% of the Moon is Illuminated
Today
Waxing Crescent
Sep 2
First Quarter
Sep 8
Full
Sep 15
Last Quarter
Sep 24
New

Today's Extremes

State Highs State Lows

Community

WunderPhotos

Upload Photos

1,748,510 photos uploaded!

WunderBlogs® & News

By Dr. Jeff Masters
Director of Meteorology, Weather Underground
By Kari Strenfel
Meteorologist, Weather Underground
By Christopher C. Burt
Weather Historian, Weather Underground
August 30, 2014
August 30, 2014
August 30, 2014

Nearby

Snow Depth

Station Depth Elevation
Wildcat 0 in 7850 ft
Beaver Head 21 in 7990 ft
Workman Creek 1 in 6900 ft
Coronado Trail 2 in 8400 ft
Maverick Fork 0 in 9200 ft

Earthquake Activity

City Distance Mag. Time & Date
No recent earthquake activity has been reported nearby.
Minimum magnitude displayed is 2.5.

Coastal Water Temperatures

Place Temperature
No Stations Reporting

Nearby Weather Stations